Rechercher aéroport 
image banner adimage banner adimage banner ad
image banner ad

KBYS - Bicycle Lake Aaf

Situé à Fort Irwin/Barstow, United States

ICAO - BYS, IATA - BYS

Données fournies par Airmate  

Information générale

Coordonnées: N35°16'50" W116°37'48"
Élévation : 2350 feet MSL.
Variation magnétique : 14° East
Voir autres Aéroports à California

Données opérationnelles

Special qualification required
Heure actuelle UTC:
Heure actuelle locale:
Météo
METAR: KBYS 251258Z AUTO 00000KT 10SM CLR 25/M01 A2997 RMK AO2 SLP116 T02521007 $
Voir NOTAMs / SUP AIP / TFR affectant cet aéroport [VIEW]
Fréquences de communication: [VIEW]

Pistes:

Identifiant RWYQFULongueur (ft)Largeur (ft)SurfaceLDA (ft)
049631175GRAVEL
229631175GRAVEL
136124175GRAVEL
316124175GRAVEL

Coordonnées de l'aéroport

Adresse: Fort Irwin/Barstow United States

Vue satellite de KBYS